sensor_id;sensor_type;location;lat;lon;timestamp;temperature;humidity
5639;DHT22;2841;44.526;11.360;2023-05-16T00:02:15;16.00;99.90
5639;DHT22;2841;44.526;11.360;2023-05-16T00:04:42;16.00;99.90
5639;DHT22;2841;44.526;11.360;2023-05-16T00:07:09;15.90;99.90
5639;DHT22;2841;44.526;11.360;2023-05-16T00:09:38;15.90;99.90
5639;DHT22;2841;44.526;11.360;2023-05-16T00:12:06;15.80;99.90
5639;DHT22;2841;44.526;11.360;2023-05-16T00:14:33;15.90;99.90
5639;DHT22;2841;44.526;11.360;2023-05-16T00:17:00;15.90;99.90
5639;DHT22;2841;44.526;11.360;2023-05-16T00:19:36;15.90;99.90
5639;DHT22;2841;44.526;11.360;2023-05-16T00:22:04;16.00;99.90
5639;DHT22;2841;44.526;11.360;2023-05-16T00:24:31;16.00;99.90
5639;DHT22;2841;44.526;11.360;2023-05-16T00:26:59;16.00;99.90
5639;DHT22;2841;44.526;11.360;2023-05-16T00:29:26;16.00;99.90
5639;DHT22;2841;44.526;11.360;2023-05-16T00:31:53;15.90;99.90
5639;DHT22;2841;44.526;11.360;2023-05-16T00:34:20;15.90;99.90
5639;DHT22;2841;44.526;11.360;2023-05-16T00:36:48;15.90;99.90
5639;DHT22;2841;44.526;11.360;2023-05-16T00:39:15;15.90;99.90
5639;DHT22;2841;44.526;11.360;2023-05-16T00:41:43;16.00;99.90
5639;DHT22;2841;44.526;11.360;2023-05-16T00:44:11;16.00;99.90
5639;DHT22;2841;44.526;11.360;2023-05-16T00:46:38;16.00;99.90
5639;DHT22;2841;44.526;11.360;2023-05-16T00:49:05;16.00;99.90
5639;DHT22;2841;44.526;11.360;2023-05-16T00:51:32;16.00;99.90
5639;DHT22;2841;44.526;11.360;2023-05-16T00:54:00;16.00;99.90
5639;DHT22;2841;44.526;11.360;2023-05-16T00:56:27;16.00;99.90
5639;DHT22;2841;44.526;11.360;2023-05-16T00:58:54;16.00;99.90
5639;DHT22;2841;44.526;11.360;2023-05-16T01:01:24;16.00;99.90
5639;DHT22;2841;44.526;11.360;2023-05-16T01:03:52;16.00;99.90
5639;DHT22;2841;44.526;11.360;2023-05-16T01:06:20;16.00;99.90
5639;DHT22;2841;44.526;11.360;2023-05-16T01:08:47;16.00;99.90
5639;DHT22;2841;44.526;11.360;2023-05-16T01:11:21;16.10;99.90
5639;DHT22;2841;44.526;11.360;2023-05-16T01:14:07;16.10;99.90
5639;DHT22;2841;44.526;11.360;2023-05-16T01:16:45;16.10;99.90
5639;DHT22;2841;44.526;11.360;2023-05-16T01:19:28;16.00;99.90
5639;DHT22;2841;44.526;11.360;2023-05-16T01:22:02;16.00;99.90
5639;DHT22;2841;44.526;11.360;2023-05-16T01:24:33;16.00;99.90
5639;DHT22;2841;44.526;11.360;2023-05-16T01:27:06;16.00;99.90
5639;DHT22;2841;44.526;11.360;2023-05-16T01:29:34;16.00;99.90
5639;DHT22;2841;44.526;11.360;2023-05-16T01:32:01;16.10;99.90
5639;DHT22;2841;44.526;11.360;2023-05-16T01:34:28;16.10;99.90
5639;DHT22;2841;44.526;11.360;2023-05-16T01:37:01;16.10;99.90
5639;DHT22;2841;44.526;11.360;2023-05-16T01:39:35;16.20;99.90
5639;DHT22;2841;44.526;11.360;2023-05-16T01:42:06;16.10;99.90
5639;DHT22;2841;44.526;11.360;2023-05-16T01:44:43;16.10;99.90
5639;DHT22;2841;44.526;11.360;2023-05-16T01:47:13;16.10;99.90
5639;DHT22;2841;44.526;11.360;2023-05-16T01:49:45;16.00;99.90
5639;DHT22;2841;44.526;11.360;2023-05-16T01:52:19;16.00;99.90
5639;DHT22;2841;44.526;11.360;2023-05-16T01:54:48;16.00;99.90
5639;DHT22;2841;44.526;11.360;2023-05-16T01:57:24;16.00;99.90
5639;DHT22;2841;44.526;11.360;2023-05-16T01:59:52;15.90;99.90
5639;DHT22;2841;44.526;11.360;2023-05-16T02:02:19;16.00;99.90
5639;DHT22;2841;44.526;11.360;2023-05-16T02:04:46;16.00;99.90
5639;DHT22;2841;44.526;11.360;2023-05-16T02:07:13;16.00;99.90
5639;DHT22;2841;44.526;11.360;2023-05-16T02:09:40;15.90;99.90
5639;DHT22;2841;44.526;11.360;2023-05-16T02:12:07;15.90;99.90
5639;DHT22;2841;44.526;11.360;2023-05-16T02:14:35;15.90;99.90
5639;DHT22;2841;44.526;11.360;2023-05-16T02:17:02;16.00;99.90
5639;DHT22;2841;44.526;11.360;2023-05-16T02:19:30;16.00;99.90
5639;DHT22;2841;44.526;11.360;2023-05-16T02:21:57;16.00;99.90
5639;DHT22;2841;44.526;11.360;2023-05-16T02:24:24;15.90;99.90
5639;DHT22;2841;44.526;11.360;2023-05-16T02:26:51;15.90;99.90
5639;DHT22;2841;44.526;11.360;2023-05-16T02:29:18;16.00;99.90
5639;DHT22;2841;44.526;11.360;2023-05-16T02:31:46;16.00;99.90
5639;DHT22;2841;44.526;11.360;2023-05-16T02:34:13;16.00;99.90
5639;DHT22;2841;44.526;11.360;2023-05-16T02:36:40;16.00;99.90
5639;DHT22;2841;44.526;11.360;2023-05-16T02:39:07;16.00;99.90
5639;DHT22;2841;44.526;11.360;2023-05-16T02:41:34;15.90;99.90
5639;DHT22;2841;44.526;11.360;2023-05-16T02:44:01;16.00;99.90
5639;DHT22;2841;44.526;11.360;2023-05-16T02:46:29;16.00;99.90
5639;DHT22;2841;44.526;11.360;2023-05-16T02:48:58;16.00;99.90
5639;DHT22;2841;44.526;11.360;2023-05-16T02:51:27;15.90;99.90
5639;DHT22;2841;44.526;11.360;2023-05-16T02:53:54;15.90;99.90
5639;DHT22;2841;44.526;11.360;2023-05-16T02:56:24;15.80;99.90
5639;DHT22;2841;44.526;11.360;2023-05-16T02:58:53;15.80;99.90
5639;DHT22;2841;44.526;11.360;2023-05-16T03:01:20;15.70;99.90
5639;DHT22;2841;44.526;11.360;2023-05-16T03:03:47;15.60;99.90
5639;DHT22;2841;44.526;11.360;2023-05-16T03:06:15;15.60;99.90
5639;DHT22;2841;44.526;11.360;2023-05-16T03:08:42;15.60;99.90
5639;DHT22;2841;44.526;11.360;2023-05-16T03:11:09;15.50;99.90
5639;DHT22;2841;44.526;11.360;2023-05-16T03:13:36;15.40;99.90
5639;DHT22;2841;44.526;11.360;2023-05-16T03:16:04;15.40;99.90
5639;DHT22;2841;44.526;11.360;2023-05-16T03:18:31;15.40;99.90
5639;DHT22;2841;44.526;11.360;2023-05-16T03:20:58;15.30;99.90
5639;DHT22;2841;44.526;11.360;2023-05-16T03:23:27;15.30;99.90
5639;DHT22;2841;44.526;11.360;2023-05-16T03:25:54;15.20;99.90
5639;DHT22;2841;44.526;11.360;2023-05-16T03:28:21;15.10;99.90
5639;DHT22;2841;44.526;11.360;2023-05-16T03:30:48;15.10;99.90
5639;DHT22;2841;44.526;11.360;2023-05-16T03:33:15;15.10;99.90
5639;DHT22;2841;44.526;11.360;2023-05-16T03:35:44;15.00;99.90
5639;DHT22;2841;44.526;11.360;2023-05-16T03:38:11;15.00;99.90
5639;DHT22;2841;44.526;11.360;2023-05-16T03:40:40;14.90;99.90
5639;DHT22;2841;44.526;11.360;2023-05-16T03:43:07;14.80;99.90
5639;DHT22;2841;44.526;11.360;2023-05-16T03:45:34;14.80;99.90
5639;DHT22;2841;44.526;11.360;2023-05-16T03:48:01;14.70;99.90
5639;DHT22;2841;44.526;11.360;2023-05-16T03:50:28;14.60;99.90
5639;DHT22;2841;44.526;11.360;2023-05-16T03:52:55;14.60;99.90
5639;DHT22;2841;44.526;11.360;2023-05-16T03:55:22;14.50;99.90
5639;DHT22;2841;44.526;11.360;2023-05-16T03:57:50;14.40;99.90
5639;DHT22;2841;44.526;11.360;2023-05-16T04:00:18;14.40;99.90
5639;DHT22;2841;44.526;11.360;2023-05-16T04:02:45;14.40;99.90
5639;DHT22;2841;44.526;11.360;2023-05-16T04:05:11;14.40;99.90
5639;DHT22;2841;44.526;11.360;2023-05-16T04:07:39;14.40;99.90
5639;DHT22;2841;44.526;11.360;2023-05-16T04:10:07;14.30;99.90
5639;DHT22;2841;44.526;11.360;2023-05-16T04:12:35;14.20;99.90
5639;DHT22;2841;44.526;11.360;2023-05-16T04:15:04;14.20;99.90
5639;DHT22;2841;44.526;11.360;2023-05-16T04:17:31;14.20;99.90
5639;DHT22;2841;44.526;11.360;2023-05-16T04:19:58;14.20;99.90
5639;DHT22;2841;44.526;11.360;2023-05-16T04:22:25;14.10;99.90
5639;DHT22;2841;44.526;11.360;2023-05-16T04:24:53;14.10;99.90
5639;DHT22;2841;44.526;11.360;2023-05-16T04:27:19;14.10;99.90
5639;DHT22;2841;44.526;11.360;2023-05-16T04:29:46;14.10;99.90
5639;DHT22;2841;44.526;11.360;2023-05-16T04:32:15;14.10;99.90
5639;DHT22;2841;44.526;11.360;2023-05-16T04:34:42;14.10;99.90
5639;DHT22;2841;44.526;11.360;2023-05-16T04:37:11;14.10;99.90
5639;DHT22;2841;44.526;11.360;2023-05-16T04:39:38;14.20;99.90
5639;DHT22;2841;44.526;11.360;2023-05-16T04:42:06;14.10;99.90
5639;DHT22;2841;44.526;11.360;2023-05-16T04:44:32;14.10;99.90
5639;DHT22;2841;44.526;11.360;2023-05-16T04:47:00;14.00;99.90
5639;DHT22;2841;44.526;11.360;2023-05-16T04:49:28;14.00;99.90
5639;DHT22;2841;44.526;11.360;2023-05-16T04:51:55;13.90;99.90
5639;DHT22;2841;44.526;11.360;2023-05-16T04:54:22;13.90;99.90
5639;DHT22;2841;44.526;11.360;2023-05-16T04:56:49;13.90;99.90
5639;DHT22;2841;44.526;11.360;2023-05-16T04:59:16;13.80;99.90
5639;DHT22;2841;44.526;11.360;2023-05-16T05:01:43;13.80;99.90
5639;DHT22;2841;44.526;11.360;2023-05-16T05:04:09;13.80;99.90
5639;DHT22;2841;44.526;11.360;2023-05-16T05:06:38;13.80;99.90
5639;DHT22;2841;44.526;11.360;2023-05-16T05:09:05;13.70;99.90
5639;DHT22;2841;44.526;11.360;2023-05-16T05:11:32;13.70;99.90
5639;DHT22;2841;44.526;11.360;2023-05-16T05:13:59;13.80;99.90
5639;DHT22;2841;44.526;11.360;2023-05-16T05:16:26;13.80;99.90
5639;DHT22;2841;44.526;11.360;2023-05-16T05:18:53;13.80;99.90
5639;DHT22;2841;44.526;11.360;2023-05-16T05:21:20;13.80;99.90
5639;DHT22;2841;44.526;11.360;2023-05-16T05:23:51;13.80;99.90
5639;DHT22;2841;44.526;11.360;2023-05-16T05:26:18;13.90;99.90
5639;DHT22;2841;44.526;11.360;2023-05-16T05:28:47;13.90;99.90
5639;DHT22;2841;44.526;11.360;2023-05-16T05:31:14;13.90;99.90
5639;DHT22;2841;44.526;11.360;2023-05-16T05:33:41;13.90;99.90
5639;DHT22;2841;44.526;11.360;2023-05-16T05:36:08;13.90;99.90
5639;DHT22;2841;44.526;11.360;2023-05-16T05:38:35;13.90;99.90
5639;DHT22;2841;44.526;11.360;2023-05-16T05:41:04;13.80;99.90
5639;DHT22;2841;44.526;11.360;2023-05-16T05:43:32;13.80;99.90
5639;DHT22;2841;44.526;11.360;2023-05-16T05:45:59;13.80;99.90
5639;DHT22;2841;44.526;11.360;2023-05-16T05:48:26;13.70;99.90
5639;DHT22;2841;44.526;11.360;2023-05-16T05:50:54;13.70;99.90
5639;DHT22;2841;44.526;11.360;2023-05-16T05:53:21;13.60;99.90
5639;DHT22;2841;44.526;11.360;2023-05-16T05:55:48;13.60;99.90
5639;DHT22;2841;44.526;11.360;2023-05-16T05:58:16;13.60;99.90
5639;DHT22;2841;44.526;11.360;2023-05-16T06:00:43;13.60;99.90
5639;DHT22;2841;44.526;11.360;2023-05-16T06:03:10;13.60;99.90
5639;DHT22;2841;44.526;11.360;2023-05-16T06:05:37;13.60;99.90
5639;DHT22;2841;44.526;11.360;2023-05-16T06:08:04;13.50;99.90
5639;DHT22;2841;44.526;11.360;2023-05-16T06:10:31;13.40;99.90
5639;DHT22;2841;44.526;11.360;2023-05-16T06:12:58;13.30;99.90
5639;DHT22;2841;44.526;11.360;2023-05-16T06:15:26;13.40;99.90
5639;DHT22;2841;44.526;11.360;2023-05-16T06:17:53;13.30;99.90
5639;DHT22;2841;44.526;11.360;2023-05-16T06:20:20;13.20;99.90
5639;DHT22;2841;44.526;11.360;2023-05-16T06:22:47;13.20;99.90
5639;DHT22;2841;44.526;11.360;2023-05-16T06:25:15;13.20;99.90
5639;DHT22;2841;44.526;11.360;2023-05-16T06:27:41;13.20;99.90
5639;DHT22;2841;44.526;11.360;2023-05-16T06:30:09;13.30;99.90
5639;DHT22;2841;44.526;11.360;2023-05-16T06:32:37;13.30;99.90
5639;DHT22;2841;44.526;11.360;2023-05-16T06:35:05;13.30;99.90
5639;DHT22;2841;44.526;11.360;2023-05-16T06:37:33;13.20;99.90
5639;DHT22;2841;44.526;11.360;2023-05-16T06:40:00;13.20;99.90
5639;DHT22;2841;44.526;11.360;2023-05-16T06:42:27;13.30;99.90
5639;DHT22;2841;44.526;11.360;2023-05-16T06:44:54;13.20;99.90
5639;DHT22;2841;44.526;11.360;2023-05-16T06:47:21;13.20;99.90
5639;DHT22;2841;44.526;11.360;2023-05-16T06:49:49;13.30;99.90
5639;DHT22;2841;44.526;11.360;2023-05-16T06:52:16;13.20;99.90
5639;DHT22;2841;44.526;11.360;2023-05-16T06:54:43;13.20;99.90
5639;DHT22;2841;44.526;11.360;2023-05-16T06:57:10;13.20;99.90
5639;DHT22;2841;44.526;11.360;2023-05-16T06:59:37;13.20;99.90
5639;DHT22;2841;44.526;11.360;2023-05-16T07:02:05;13.20;99.90
5639;DHT22;2841;44.526;11.360;2023-05-16T07:04:33;13.20;99.90
5639;DHT22;2841;44.526;11.360;2023-05-16T07:07:04;13.20;99.90
5639;DHT22;2841;44.526;11.360;2023-05-16T07:09:32;13.20;99.90
5639;DHT22;2841;44.526;11.360;2023-05-16T07:11:59;13.20;99.90
5639;DHT22;2841;44.526;11.360;2023-05-16T07:14:26;13.20;99.90
5639;DHT22;2841;44.526;11.360;2023-05-16T07:16:53;13.20;99.90
5639;DHT22;2841;44.526;11.360;2023-05-16T07:19:21;13.20;99.90
5639;DHT22;2841;44.526;11.360;2023-05-16T07:21:47;13.30;99.90
5639;DHT22;2841;44.526;11.360;2023-05-16T07:24:16;13.30;99.90
5639;DHT22;2841;44.526;11.360;2023-05-16T07:26:43;13.40;99.90
5639;DHT22;2841;44.526;11.360;2023-05-16T07:29:11;13.40;99.90
5639;DHT22;2841;44.526;11.360;2023-05-16T07:31:38;13.50;99.90
5639;DHT22;2841;44.526;11.360;2023-05-16T07:34:05;13.40;99.90
5639;DHT22;2841;44.526;11.360;2023-05-16T07:36:32;13.40;99.90
5639;DHT22;2841;44.526;11.360;2023-05-16T07:38:59;13.40;99.90
5639;DHT22;2841;44.526;11.360;2023-05-16T07:41:27;13.40;99.90
5639;DHT22;2841;44.526;11.360;2023-05-16T07:43:54;13.40;99.90
5639;DHT22;2841;44.526;11.360;2023-05-16T07:46:21;13.40;99.90
5639;DHT22;2841;44.526;11.360;2023-05-16T07:48:48;13.40;99.90
5639;DHT22;2841;44.526;11.360;2023-05-16T07:51:15;13.40;99.90
5639;DHT22;2841;44.526;11.360;2023-05-16T07:53:42;13.50;99.90
5639;DHT22;2841;44.526;11.360;2023-05-16T07:56:09;13.50;99.90
5639;DHT22;2841;44.526;11.360;2023-05-16T07:58:38;13.50;99.90
5639;DHT22;2841;44.526;11.360;2023-05-16T08:01:06;13.60;99.90
5639;DHT22;2841;44.526;11.360;2023-05-16T08:03:34;13.60;99.90
5639;DHT22;2841;44.526;11.360;2023-05-16T08:06:01;13.70;99.90
5639;DHT22;2841;44.526;11.360;2023-05-16T08:08:28;13.70;99.90
5639;DHT22;2841;44.526;11.360;2023-05-16T08:10:55;13.80;99.90
5639;DHT22;2841;44.526;11.360;2023-05-16T08:13:22;13.80;99.90
5639;DHT22;2841;44.526;11.360;2023-05-16T08:15:51;13.90;99.90
5639;DHT22;2841;44.526;11.360;2023-05-16T08:18:18;14.00;99.90
5639;DHT22;2841;44.526;11.360;2023-05-16T08:20:45;14.00;99.90
5639;DHT22;2841;44.526;11.360;2023-05-16T08:23:13;14.00;99.90
5639;DHT22;2841;44.526;11.360;2023-05-16T08:25:41;14.10;99.90
5639;DHT22;2841;44.526;11.360;2023-05-16T08:28:08;14.10;99.90
5639;DHT22;2841;44.526;11.360;2023-05-16T08:30:35;14.20;99.90
5639;DHT22;2841;44.526;11.360;2023-05-16T08:33:05;14.20;99.90
5639;DHT22;2841;44.526;11.360;2023-05-16T08:35:32;14.20;99.90
5639;DHT22;2841;44.526;11.360;2023-05-16T08:38:00;14.30;99.90
5639;DHT22;2841;44.526;11.360;2023-05-16T08:40:28;14.30;99.90
5639;DHT22;2841;44.526;11.360;2023-05-16T08:42:56;14.30;99.90
5639;DHT22;2841;44.526;11.360;2023-05-16T08:45:23;14.30;99.90
5639;DHT22;2841;44.526;11.360;2023-05-16T08:47:53;14.40;99.90
5639;DHT22;2841;44.526;11.360;2023-05-16T08:50:23;14.40;99.90
5639;DHT22;2841;44.526;11.360;2023-05-16T08:52:51;14.50;99.90
5639;DHT22;2841;44.526;11.360;2023-05-16T08:55:19;14.50;99.90
5639;DHT22;2841;44.526;11.360;2023-05-16T08:57:48;14.60;99.90
5639;DHT22;2841;44.526;11.360;2023-05-16T09:00:16;14.60;99.90
5639;DHT22;2841;44.526;11.360;2023-05-16T09:02:44;14.60;99.90
5639;DHT22;2841;44.526;11.360;2023-05-16T09:05:13;14.60;99.90
5639;DHT22;2841;44.526;11.360;2023-05-16T09:07:43;14.60;99.90
5639;DHT22;2841;44.526;11.360;2023-05-16T09:10:10;14.70;99.90
5639;DHT22;2841;44.526;11.360;2023-05-16T09:12:39;14.60;99.90
5639;DHT22;2841;44.526;11.360;2023-05-16T09:15:07;14.60;99.90
5639;DHT22;2841;44.526;11.360;2023-05-16T09:17:35;14.60;99.90
5639;DHT22;2841;44.526;11.360;2023-05-16T09:20:11;14.60;99.90
5639;DHT22;2841;44.526;11.360;2023-05-16T09:22:38;14.60;99.90
5639;DHT22;2841;44.526;11.360;2023-05-16T09:25:08;14.60;99.90
5639;DHT22;2841;44.526;11.360;2023-05-16T09:27:35;14.60;99.90
5639;DHT22;2841;44.526;11.360;2023-05-16T09:30:03;14.60;99.90
5639;DHT22;2841;44.526;11.360;2023-05-16T09:32:30;14.70;99.90
5639;DHT22;2841;44.526;11.360;2023-05-16T09:34:58;14.80;99.90
5639;DHT22;2841;44.526;11.360;2023-05-16T09:37:25;14.90;99.90
5639;DHT22;2841;44.526;11.360;2023-05-16T09:39:53;15.00;99.90
5639;DHT22;2841;44.526;11.360;2023-05-16T09:42:21;15.10;99.90
5639;DHT22;2841;44.526;11.360;2023-05-16T09:44:49;15.10;99.90
5639;DHT22;2841;44.526;11.360;2023-05-16T09:47:17;15.10;99.90
5639;DHT22;2841;44.526;11.360;2023-05-16T09:49:45;15.10;99.90
5639;DHT22;2841;44.526;11.360;2023-05-16T09:52:13;15.10;99.90
5639;DHT22;2841;44.526;11.360;2023-05-16T09:54:41;15.10;99.90
5639;DHT22;2841;44.526;11.360;2023-05-16T09:57:08;15.10;99.90
5639;DHT22;2841;44.526;11.360;2023-05-16T09:59:37;15.00;99.90
5639;DHT22;2841;44.526;11.360;2023-05-16T10:02:05;15.00;99.90
5639;DHT22;2841;44.526;11.360;2023-05-16T10:04:33;15.00;99.90
5639;DHT22;2841;44.526;11.360;2023-05-16T10:07:01;14.90;99.90
5639;DHT22;2841;44.526;11.360;2023-05-16T10:09:31;14.90;99.90
5639;DHT22;2841;44.526;11.360;2023-05-16T10:11:59;14.80;99.90
5639;DHT22;2841;44.526;11.360;2023-05-16T10:14:29;14.80;99.90
5639;DHT22;2841;44.526;11.360;2023-05-16T10:16:58;14.80;99.90
5639;DHT22;2841;44.526;11.360;2023-05-16T10:19:25;14.80;99.90
5639;DHT22;2841;44.526;11.360;2023-05-16T10:21:55;14.80;99.90
5639;DHT22;2841;44.526;11.360;2023-05-16T10:24:28;14.80;99.90
5639;DHT22;2841;44.526;11.360;2023-05-16T10:26:57;14.80;99.90
5639;DHT22;2841;44.526;11.360;2023-05-16T10:29:24;14.80;99.90
5639;DHT22;2841;44.526;11.360;2023-05-16T10:31:51;14.80;99.90
5639;DHT22;2841;44.526;11.360;2023-05-16T10:34:20;14.70;99.90
5639;DHT22;2841;44.526;11.360;2023-05-16T10:36:47;14.70;99.90
5639;DHT22;2841;44.526;11.360;2023-05-16T10:39:15;14.70;99.90
5639;DHT22;2841;44.526;11.360;2023-05-16T10:41:43;14.70;99.90
5639;DHT22;2841;44.526;11.360;2023-05-16T10:44:14;14.70;99.90
5639;DHT22;2841;44.526;11.360;2023-05-16T10:46:41;14.60;99.90
5639;DHT22;2841;44.526;11.360;2023-05-16T10:49:20;14.60;99.90
5639;DHT22;2841;44.526;11.360;2023-05-16T10:52:01;14.60;99.90
5639;DHT22;2841;44.526;11.360;2023-05-16T10:54:37;14.60;99.90
5639;DHT22;2841;44.526;11.360;2023-05-16T10:57:05;14.50;99.90
5639;DHT22;2841;44.526;11.360;2023-05-16T10:59:40;14.50;99.90
5639;DHT22;2841;44.526;11.360;2023-05-16T11:02:24;14.60;99.90
5639;DHT22;2841;44.526;11.360;2023-05-16T11:04:54;14.50;99.90
5639;DHT22;2841;44.526;11.360;2023-05-16T11:07:23;14.50;99.90
5639;DHT22;2841;44.526;11.360;2023-05-16T11:10:04;14.50;99.90
5639;DHT22;2841;44.526;11.360;2023-05-16T11:12:44;14.60;99.90
5639;DHT22;2841;44.526;11.360;2023-05-16T11:15:22;14.60;99.90
5639;DHT22;2841;44.526;11.360;2023-05-16T11:17:50;14.60;99.90
5639;DHT22;2841;44.526;11.360;2023-05-16T11:20:30;14.60;99.90
5639;DHT22;2841;44.526;11.360;2023-05-16T11:23:18;14.70;99.90
5639;DHT22;2841;44.526;11.360;2023-05-16T11:25:47;14.70;99.90
5639;DHT22;2841;44.526;11.360;2023-05-16T11:28:16;14.70;99.90
5639;DHT22;2841;44.526;11.360;2023-05-16T11:30:46;14.60;99.90
5639;DHT22;2841;44.526;11.360;2023-05-16T11:33:13;14.60;99.90
5639;DHT22;2841;44.526;11.360;2023-05-16T11:35:41;14.60;99.90
5639;DHT22;2841;44.526;11.360;2023-05-16T11:38:12;14.70;99.90
5639;DHT22;2841;44.526;11.360;2023-05-16T11:40:44;14.70;99.90
5639;DHT22;2841;44.526;11.360;2023-05-16T11:43:16;14.70;99.90
5639;DHT22;2841;44.526;11.360;2023-05-16T11:45:44;14.70;99.90
5639;DHT22;2841;44.526;11.360;2023-05-16T11:48:11;14.70;99.90
5639;DHT22;2841;44.526;11.360;2023-05-16T11:50:38;14.70;99.90
5639;DHT22;2841;44.526;11.360;2023-05-16T11:53:07;14.80;99.90
5639;DHT22;2841;44.526;11.360;2023-05-16T11:55:34;14.80;99.90
5639;DHT22;2841;44.526;11.360;2023-05-16T11:58:01;14.90;99.90
5639;DHT22;2841;44.526;11.360;2023-05-16T12:00:29;14.90;99.90
5639;DHT22;2841;44.526;11.360;2023-05-16T12:03:01;14.90;99.90
5639;DHT22;2841;44.526;11.360;2023-05-16T12:05:28;15.00;99.90
5639;DHT22;2841;44.526;11.360;2023-05-16T12:07:57;15.00;99.90
5639;DHT22;2841;44.526;11.360;2023-05-16T12:10:26;15.00;99.90
5639;DHT22;2841;44.526;11.360;2023-05-16T12:12:53;15.00;99.90
5639;DHT22;2841;44.526;11.360;2023-05-16T12:15:20;15.00;99.90
5639;DHT22;2841;44.526;11.360;2023-05-16T12:17:48;15.10;99.90
5639;DHT22;2841;44.526;11.360;2023-05-16T12:20:15;15.10;99.90
5639;DHT22;2841;44.526;11.360;2023-05-16T12:22:43;15.20;99.90
5639;DHT22;2841;44.526;11.360;2023-05-16T12:25:33;15.20;99.90
5639;DHT22;2841;44.526;11.360;2023-05-16T12:28:03;15.20;99.90
5639;DHT22;2841;44.526;11.360;2023-05-16T12:30:32;15.20;99.90
5639;DHT22;2841;44.526;11.360;2023-05-16T12:33:00;15.30;99.90
5639;DHT22;2841;44.526;11.360;2023-05-16T12:35:30;15.20;99.90
5639;DHT22;2841;44.526;11.360;2023-05-16T12:37:57;15.30;99.90
5639;DHT22;2841;44.526;11.360;2023-05-16T12:40:27;15.30;99.90
5639;DHT22;2841;44.526;11.360;2023-05-16T12:42:56;15.30;99.90
5639;DHT22;2841;44.526;11.360;2023-05-16T12:45:24;15.30;99.90
5639;DHT22;2841;44.526;11.360;2023-05-16T12:47:52;15.30;99.90
5639;DHT22;2841;44.526;11.360;2023-05-16T12:50:19;15.30;99.90
5639;DHT22;2841;44.526;11.360;2023-05-16T12:52:48;15.30;99.90
5639;DHT22;2841;44.526;11.360;2023-05-16T12:55:16;15.30;99.90
5639;DHT22;2841;44.526;11.360;2023-05-16T12:57:43;15.30;99.90
5639;DHT22;2841;44.526;11.360;2023-05-16T13:00:15;15.30;99.90
5639;DHT22;2841;44.526;11.360;2023-05-16T13:02:43;15.30;99.90
5639;DHT22;2841;44.526;11.360;2023-05-16T13:05:10;15.20;99.90
5639;DHT22;2841;44.526;11.360;2023-05-16T13:07:38;15.20;99.90
5639;DHT22;2841;44.526;11.360;2023-05-16T13:10:06;15.20;99.90
5639;DHT22;2841;44.526;11.360;2023-05-16T13:12:35;15.20;99.90
5639;DHT22;2841;44.526;11.360;2023-05-16T13:15:03;15.20;99.90
5639;DHT22;2841;44.526;11.360;2023-05-16T13:17:33;15.30;99.90
5639;DHT22;2841;44.526;11.360;2023-05-16T13:20:00;15.30;99.90
5639;DHT22;2841;44.526;11.360;2023-05-16T13:22:29;15.30;99.90
5639;DHT22;2841;44.526;11.360;2023-05-16T13:24:56;15.30;99.90
5639;DHT22;2841;44.526;11.360;2023-05-16T13:27:23;15.30;99.90
5639;DHT22;2841;44.526;11.360;2023-05-16T13:29:50;15.30;99.90
5639;DHT22;2841;44.526;11.360;2023-05-16T13:32:16;15.20;99.90
5639;DHT22;2841;44.526;11.360;2023-05-16T13:34:45;15.30;99.90
5639;DHT22;2841;44.526;11.360;2023-05-16T13:37:12;15.30;99.90
5639;DHT22;2841;44.526;11.360;2023-05-16T13:39:39;15.30;99.90
5639;DHT22;2841;44.526;11.360;2023-05-16T13:42:07;15.30;99.90
5639;DHT22;2841;44.526;11.360;2023-05-16T13:44:34;15.20;99.90
5639;DHT22;2841;44.526;11.360;2023-05-16T13:47:01;15.20;99.90
5639;DHT22;2841;44.526;11.360;2023-05-16T13:49:28;15.20;99.90
5639;DHT22;2841;44.526;11.360;2023-05-16T13:51:57;15.30;99.90
5639;DHT22;2841;44.526;11.360;2023-05-16T13:54:26;15.30;99.90
5639;DHT22;2841;44.526;11.360;2023-05-16T13:56:53;15.30;99.90
5639;DHT22;2841;44.526;11.360;2023-05-16T13:59:20;15.30;99.90
5639;DHT22;2841;44.526;11.360;2023-05-16T14:01:47;15.40;99.90
5639;DHT22;2841;44.526;11.360;2023-05-16T14:04:14;15.40;99.90
5639;DHT22;2841;44.526;11.360;2023-05-16T14:06:41;15.30;99.90
5639;DHT22;2841;44.526;11.360;2023-05-16T14:09:09;15.30;99.90
5639;DHT22;2841;44.526;11.360;2023-05-16T14:11:37;15.30;99.90
5639;DHT22;2841;44.526;11.360;2023-05-16T14:14:04;15.30;99.90
5639;DHT22;2841;44.526;11.360;2023-05-16T14:16:31;15.20;99.90
5639;DHT22;2841;44.526;11.360;2023-05-16T14:18:59;15.20;99.90
5639;DHT22;2841;44.526;11.360;2023-05-16T14:21:26;15.20;99.90
5639;DHT22;2841;44.526;11.360;2023-05-16T14:23:54;15.20;99.90
5639;DHT22;2841;44.526;11.360;2023-05-16T14:26:23;15.20;99.90
5639;DHT22;2841;44.526;11.360;2023-05-16T14:28:51;15.20;99.90
5639;DHT22;2841;44.526;11.360;2023-05-16T14:31:18;15.20;99.90
5639;DHT22;2841;44.526;11.360;2023-05-16T14:33:45;15.20;99.90
5639;DHT22;2841;44.526;11.360;2023-05-16T14:36:12;15.20;99.90
5639;DHT22;2841;44.526;11.360;2023-05-16T14:38:39;15.30;99.90
5639;DHT22;2841;44.526;11.360;2023-05-16T14:41:06;15.30;99.90
5639;DHT22;2841;44.526;11.360;2023-05-16T14:43:35;15.30;99.90
5639;DHT22;2841;44.526;11.360;2023-05-16T14:46:04;15.30;99.90
5639;DHT22;2841;44.526;11.360;2023-05-16T14:48:31;15.30;99.90
5639;DHT22;2841;44.526;11.360;2023-05-16T14:50:59;15.30;99.90
5639;DHT22;2841;44.526;11.360;2023-05-16T14:53:26;15.30;99.90
5639;DHT22;2841;44.526;11.360;2023-05-16T14:55:53;15.30;99.90
5639;DHT22;2841;44.526;11.360;2023-05-16T14:58:20;15.20;99.90
5639;DHT22;2841;44.526;11.360;2023-05-16T15:00:49;15.10;99.90
5639;DHT22;2841;44.526;11.360;2023-05-16T15:03:16;15.10;99.90
5639;DHT22;2841;44.526;11.360;2023-05-16T15:05:43;15.10;99.90
5639;DHT22;2841;44.526;11.360;2023-05-16T15:08:11;15.10;99.90
5639;DHT22;2841;44.526;11.360;2023-05-16T15:10:38;15.00;99.90
5639;DHT22;2841;44.526;11.360;2023-05-16T15:13:05;15.00;99.90
5639;DHT22;2841;44.526;11.360;2023-05-16T15:15:31;14.90;99.90
5639;DHT22;2841;44.526;11.360;2023-05-16T15:18:00;14.90;99.90
5639;DHT22;2841;44.526;11.360;2023-05-16T15:20:27;14.90;99.90
5639;DHT22;2841;44.526;11.360;2023-05-16T15:22:54;14.80;99.90
5639;DHT22;2841;44.526;11.360;2023-05-16T15:25:21;14.80;99.90
5639;DHT22;2841;44.526;11.360;2023-05-16T15:27:48;14.80;99.90
5639;DHT22;2841;44.526;11.360;2023-05-16T15:30:15;14.80;99.90
5639;DHT22;2841;44.526;11.360;2023-05-16T15:32:43;14.80;99.90
5639;DHT22;2841;44.526;11.360;2023-05-16T15:35:11;14.80;99.90
5639;DHT22;2841;44.526;11.360;2023-05-16T15:37:39;14.70;99.90
5639;DHT22;2841;44.526;11.360;2023-05-16T15:40:07;14.70;99.90
5639;DHT22;2841;44.526;11.360;2023-05-16T15:42:35;14.70;99.90
5639;DHT22;2841;44.526;11.360;2023-05-16T15:45:03;14.70;99.90
5639;DHT22;2841;44.526;11.360;2023-05-16T15:47:30;14.60;99.90
5639;DHT22;2841;44.526;11.360;2023-05-16T15:49:57;14.70;99.90
5639;DHT22;2841;44.526;11.360;2023-05-16T15:52:25;14.60;99.90